Flight Track Log - Related Links

Times and Time Zones

All times are in EDT time to prevent confusion due to time zone crossing. See the UAL4849 flight status page for this flight to view local times or setup timezone preferences in your user account.

Time Position Orientation Groundspeed Altitude Reporting Facility
EDT Latitude Longitude Course Direction KTS MPH feet Rate Location/Type
Sun 02:14:20 PM 39.2000 -76.6333 270° West 184 212 1,800  Level Potomac TRACON
Sun 02:15:20 PM 39.2500 -76.6000 27° Northeast 201 231 3,100 1,300 Climbing Potomac TRACON
Sun 02:16:20 PM 39.3000 -76.6000 360° North 214 246 4,400 1,350 Climbing Potomac TRACON
Sun 02:17:20 PM 39.3167 -76.6667 288° West 188 216 5,800 1,300 Climbing Potomac TRACON
Sun 02:18:20 PM 39.3167 -76.7333 270° West 195 224 7,000 1,289 Climbing Potomac TRACON
Sun 02:19:00 PM 39.2000 -77.0753 270° West  Level FlightAware Approximate
Sun 02:19:21 PM 39.3167 -76.8000 270° West 193 222 8,400  Level Potomac TRACON
Sun 02:20:15 PM 39.3333 -76.8667 288° West 196 226 9,700 1,450 Climbing Potomac TRACON
Sun 02:21:21 PM 39.3333 -76.9333 270° West 180 207 11,300 1,119 Climbing Potomac TRACON
Sun 02:23:12 PM 39.3464 -77.0622 278° West 199 229 13,000 942 Climbing Washington Center
Sun 02:24:13 PM 39.3683 -77.1272 294° West 204 235 14,000 984 Climbing Washington Center
Sun 02:25:14 PM 39.4008 -77.1897 304° West 199 229 15,000 908 Climbing Washington Center
Sun 02:26:12 PM 39.4314 -77.2547 301° West 204 235 15,800 504 Climbing Washington Center
Sun 02:27:13 PM 39.4636 -77.3228 302° West 215 247 16,000 99 Climbing Washington Center
Sun 02:28:13 PM 39.5003 -77.3961 303° West 227 261 16,000 248 Level Washington Center
Sun 02:29:14 PM 39.5386 -77.4753 302° West 249 287 16,500 857 Climbing Washington Center
Sun 02:30:12 PM 39.5750 -77.5461 304° West 249 287 17,700 763 Climbing Washington Center
Sun 02:31:12 PM 39.6050 -77.6142 300° West 236 272 18,000 149 Climbing Washington Center
Sun 02:32:13 PM 39.6414 -77.6853 304° West 231 266 18,000  Level Washington Center
Sun 02:33:13 PM 39.6775 -77.7592 302° West 236 272 18,000  Level Washington Center
Sun 02:34:14 PM 39.7156 -77.8386 302° West 247 284 18,000  Level Washington Center
Sun 02:35:58 PM 39.7808 -77.9708 303° West 252 290 18,000  Level Cleveland Center
Sun 02:36:58 PM 39.8181 -78.0531 301° West 252 290 18,000  Level Cleveland Center
Sun 02:37:58 PM 39.8594 -78.1328 304° West 257 296 18,000  Level Cleveland Center
Sun 02:38:58 PM 39.9089 -78.2042 312° West 262 302 18,000  Level Cleveland Center
Sun 02:39:58 PM 39.9542 -78.2783 309° West 268 308 18,000  Level Cleveland Center
Sun 02:40:58 PM 40.0014 -78.3500 311° West 268 308 18,000  Level Cleveland Center
Sun 02:41:58 PM 40.0467 -78.4242 309° West 268 308 18,000  Level Cleveland Center
Sun 02:42:58 PM 40.0958 -78.4933 313° West 268 308 18,000  Level Cleveland Center
Sun 02:43:58 PM 40.1431 -78.5678 310° West 268 308 18,000  Level Cleveland Center
Sun 02:44:58 PM 40.1903 -78.6397 311° West 268 308 18,000  Level Cleveland Center
Sun 02:45:58 PM 40.2353 -78.7119 309° West 268 308 18,000  Level Cleveland Center
Sun 02:46:58 PM 40.2822 -78.7842 310° West 268 308 18,000  Level Cleveland Center
Sun 02:47:58 PM 40.3272 -78.8564 309° West 268 308 18,000  Level Cleveland Center
Sun 02:48:58 PM 40.3678 -78.9317 305° West 268 308 18,000  Level Cleveland Center
Sun 02:49:58 PM 40.4106 -79.0042 308° West 263 303 18,000  Level Cleveland Center
Sun 02:50:58 PM 40.4533 -79.0797 307° West 263 303 18,000  Level Cleveland Center
Sun 02:51:58 PM 40.4939 -79.1553 305° West 263 303 18,000  Level Cleveland Center
Sun 02:52:58 PM 40.5367 -79.2308 307° West 263 303 18,000  Level Cleveland Center
Sun 02:53:58 PM 40.5833 -79.3064 309° West 258 297 18,000  Level Cleveland Center
Sun 02:54:58 PM 40.6258 -79.3822 306° West 258 297 18,000  Level Cleveland Center
Sun 02:55:58 PM 40.6661 -79.4581 305° West 258 297 18,000  Level Cleveland Center
Sun 02:56:58 PM 40.7106 -79.5339 308° West 258 297 18,000  Level Cleveland Center
Sun 02:57:58 PM 40.7531 -79.6100 306° West 258 297 18,000  Level Cleveland Center
Sun 02:58:58 PM 40.7953 -79.6889 305° West 258 297 18,000  Level Cleveland Center
Sun 02:59:58 PM 40.8378 -79.7653 306° West 258 297 18,000  Level Cleveland Center
Sun 03:00:58 PM 40.8819 -79.8417 307° West 258 297 18,000  Level Cleveland Center
Sun 03:01:58 PM 40.9219 -79.9208 304° West 258 297 18,000  Level Cleveland Center
Sun 03:02:58 PM 40.9642 -79.9975 306° West 258 297 18,000  Level Cleveland Center
Sun 03:03:58 PM 41.0061 -80.0714 307° West 258 297 18,000 -450 Level Cleveland Center
Sun 03:04:58 PM 41.0483 -80.1508 305° West 258 297 17,100 -950 Descending Cleveland Center
Sun 03:05:58 PM 41.0964 -80.2386 306° West 272 313 16,100 -1,000 Descending Cleveland Center
Sun 03:06:58 PM 41.1447 -80.3239 307° West 284 327 15,100 -1,050 Descending Cleveland Center
Sun 03:07:58 PM 41.1886 -80.4119 304° West 279 321 14,000 -1,050 Descending Cleveland Center
Sun 03:08:58 PM 41.2303 -80.4892 306° West 268 308 13,000 -1,000 Descending Cleveland Center
Sun 03:09:58 PM 41.2719 -80.5639 307° West 263 303 12,000 -1,000 Descending Cleveland Center
Sun 03:10:58 PM 41.3094 -80.6383 304° West 256 295 11,000 -1,050 Descending Cleveland Center
Sun 03:11:58 PM 41.3450 -80.7158 301° West 250 288 9,900 -1,000 Descending Cleveland Center
Sun 03:12:58 PM 41.3761 -80.7989 297° West 250 288 9,000 -607 Descending Cleveland Center
Sun 03:13:27 PM 41.3886 -80.8378 293° West 250 288 9,000  Level Cleveland Center
Sun 03:13:58 PM 41.4050 -80.8711 303° West 250 288 9,000  Level Cleveland Center
Sun 03:14:58 PM 41.4361 -80.9542 297° West 250 288 9,000  Level Cleveland Center
Sun 03:15:58 PM 41.4672 -81.0347 297° West 250 288 9,000  Level Cleveland Center
Sun 03:16:58 PM 41.4856 -81.1236 285° West 250 288 9,000  Level Cleveland Center
Sun 03:17:24 PM 41.4958 -81.1653 288° West 238 274 9,000  Level Cleveland Center
Sun 03:17:58 PM 41.5017 -81.2097 280° West 245 282 9,000 -358 Level Cleveland Center
Sun 03:18:31 PM 41.5097 -81.2681 280° West 239 275 8,600 -800 Descending Cleveland Center
Sun 03:18:58 PM 41.5136 -81.2958 281° West 240 276 8,200 -1,125 Descending Cleveland Center
Sun 03:19:19 PM 41.5197 -81.3319 283° West 234 269 7,700 -1,100 Descending Cleveland Center
Sun 03:19:58 PM 41.5256 -81.3792 279° West 240 276 7,100 -1,082 Descending Cleveland Center
Sun 03:20:20 PM 41.5297 -81.4181 278° West 234 269 6,600 -1,100 Descending Cleveland Center
Sun 03:20:58 PM 41.5333 -81.4681 276° West 240 276 6,000 -1,091 Descending Cleveland Center
Sun 03:21:26 PM 41.5372 -81.5181 276° West 241 277 5,400 -1,100 Descending Cleveland Center
Sun 03:21:58 PM 41.5389 -81.5542 274° West 235 270 4,900 -984 Descending Cleveland Center
Sun 03:22:27 PM 41.5428 -81.6069 276° West 236 272 4,400 -900 Descending Cleveland Center
Sun 03:22:58 PM 41.5361 -81.6372 254° West 229 264 4,000 -500 Descending Cleveland Center
Sun 03:23:15 PM 41.5294 -81.6678 254° West 199 229 4,000 -538 Level Cleveland Center
Sun 03:24:16 PM 41.4978 -81.7225 232° Southwest 175 201 3,300 -787 Descending Cleveland Center
Sun 03:25:17 PM 41.4703 -81.7636 228° Southwest 152 175 2,400 -677 Descending Cleveland Center
Sun 03:26:29 PM 41.4428 -81.8047 228° Southwest 112 129 1,800 -626 Descending Cleveland Center
Sun 03:27:12 PM 41.4278 -81.8294 231° Southwest 115 132 1,200 -837 Descending Cleveland Center
Sun 03:29:00 PM 41.4000 -81.8500 255° West  Level FlightAware Approximate

Login

Don't have an account? Register now (free) for customized features, flight alerts, and more!